This is the latest recevied weather packets stored in our database for station/object KD9IXX-13. If no packets are shown the sender has not sent any weather packets the latest 10 day(s).
| Time | Temp. | Humidity | Pressure | Rain* | Wind** | Luminosity | Snow |
|---|---|---|---|---|---|---|---|
| 1777947302 | 14.44° C | 91% | 1002.9 hPa | 0 mm | - | 0 W/m² | - |
| 1777947002 | 14.44° C | 91% | 1002.7 hPa | 1.02 mm | - | 0 W/m² | - |
| 1777946702 | 14.44° C | 91% | 1002.5 hPa | 0 mm | - | 0 W/m² | - |
| 1777946402 | 14.44° C | 91% | 1002.4 hPa | 1.78 mm | - | 0 W/m² | - |
| 1777946102 | 14.44° C | 90% | 1002.3 hPa | 1.78 mm | - | 0 W/m² | - |
| 1777945802 | 14.44° C | 90% | 1002.4 hPa | 1.02 mm | - | 0 W/m² | - |
| 1777945502 | 14.44° C | 92% | 1002.5 hPa | 1.02 mm | - | 0 W/m² | - |
| 1777945201 | 13.89° C | 94% | 1002.7 hPa | 1.78 mm | - | 0 W/m² | - |
| 1777944902 | 13.89° C | 95% | 1003.1 hPa | 1.78 mm | - | 0 W/m² | - |
| 1777944602 | 13.89° C | 94% | 1002.7 hPa | 1.02 mm | - | 0 W/m² | - |
| 1777944302 | 13.89° C | 95% | 1003.2 hPa | 1.02 mm | - | 0 W/m² | - |
| 1777944002 | 13.89° C | 96% | 1003.5 hPa | 1.78 mm | - | 0 W/m² | - |
| 1777943702 | 14.44° C | 94% | 1003.2 hPa | 2.79 mm | - | 0 W/m² | - |
| 1777943402 | 15.56° C | 89% | 1003.7 hPa | 2.79 mm | - | 0 W/m² | - |
| 1777943102 | 15° C | 90% | 1002.8 hPa | 0 mm | - | 0 W/m² | - |
| 1777942802 | 15° C | 89% | 1002.3 hPa | 1.78 mm | - | 0 W/m² | - |
| 1777942502 | 15° C | 90% | 1002.1 hPa | 1.78 mm | - | 0 W/m² | - |
| 1777942203 | 15° C | 92% | 1002 hPa | 0 mm | - | 0 W/m² | - |
| 1777941902 | 14.44° C | 94% | 1001.8 hPa | 0 mm | - | 0 W/m² | - |
| 1777941602 | 14.44° C | 95% | 1001.9 hPa | 0 mm | - | 0 W/m² | - |
| 1777941302 | 15° C | 94% | 1001.6 hPa | 4.06 mm | - | 0 W/m² | - |
| 1777941002 | 16.67° C | 90% | 1001.4 hPa | 7.62 mm | - | 0 W/m² | - |
| 1777940702 | 17.22° C | 88% | 1001.4 hPa | 4.57 mm | - | 0 W/m² | - |
| 1777940402 | 17.22° C | 87% | 1001.4 hPa | 0 mm | - | 0 W/m² | - |
| 1777940102 | 18.33° C | 83% | 1001.6 hPa | 0 mm | - | 0 W/m² | - |
* Rain latest hour (hover to see other rain measurements)
** Current wind speed in m/s (hover to see current wind gust speed)